createdAt,value
2023-04-13T00:03:51.405Z,21.90
2023-04-13T00:06:53.154Z,25.70
2023-04-13T00:09:54.942Z,21.50
2023-04-13T00:15:58.538Z,18.50
2023-04-13T00:19:00.243Z,19.10
2023-04-13T00:22:02.105Z,17.90
2023-04-13T00:28:05.512Z,17.00
2023-04-13T00:31:07.517Z,19.40
2023-04-13T00:37:10.968Z,25.10
2023-04-13T00:43:15.819Z,25.70
2023-04-13T00:46:20.443Z,26.10
2023-04-13T00:49:22.420Z,27.00
2023-04-13T00:52:24.132Z,24.90
2023-04-13T00:55:28.794Z,28.90
2023-04-13T01:01:32.067Z,26.40
2023-04-13T01:07:41.205Z,32.80
2023-04-13T01:11:05.192Z,35.80
2023-04-13T01:14:22.273Z,33.80
2023-04-13T01:17:25.892Z,35.30
2023-04-13T01:20:28.670Z,35.90
2023-04-13T01:23:34.625Z,37.00
2023-04-13T01:26:46.625Z,36.30
2023-04-13T01:29:49.770Z,35.40
2023-04-13T01:32:52.137Z,32.70
2023-04-13T01:35:55.687Z,35.10
2023-04-13T01:38:57.386Z,30.70
2023-04-13T01:41:59.629Z,30.90
2023-04-13T01:45:01.342Z,31.80
2023-04-13T01:51:16.155Z,34.90
2023-04-13T01:54:20.493Z,34.40
2023-04-13T01:57:22.954Z,38.50
2023-04-13T02:00:28.656Z,32.90
2023-04-13T02:03:30.536Z,33.70
2023-04-13T02:06:32.344Z,38.30
2023-04-13T02:09:34.657Z,37.30
2023-04-13T02:12:36.408Z,37.70
2023-04-13T02:18:40.080Z,36.30
2023-04-13T02:21:41.810Z,35.00
2023-04-13T02:27:44.936Z,35.10
2023-04-13T02:30:46.724Z,33.90
2023-04-13T02:33:48.772Z,33.60
2023-04-13T02:36:50.376Z,34.00
2023-04-13T02:39:52.008Z,29.50
2023-04-13T02:42:53.647Z,34.50
2023-04-13T02:45:56.280Z,35.90
2023-04-13T02:48:58.026Z,39.30
2023-04-13T02:55:01.374Z,36.20
2023-04-13T02:58:03.205Z,38.80
2023-04-13T03:01:05.145Z,36.70
2023-04-13T03:04:06.923Z,37.20
2023-04-13T03:07:08.896Z,39.00
2023-04-13T03:13:12.234Z,37.70
2023-04-13T03:16:15.150Z,39.10
2023-04-13T03:19:17.015Z,41.90
2023-04-13T03:22:18.673Z,42.60
2023-04-13T03:25:20.323Z,40.10
2023-04-13T03:28:22.018Z,36.40
2023-04-13T03:34:25.330Z,36.40
2023-04-13T03:40:28.626Z,36.00
2023-04-13T03:46:32.154Z,38.50
2023-04-13T03:52:35.427Z,40.00
2023-04-13T03:58:38.793Z,38.50
2023-04-13T04:01:40.489Z,33.10
2023-04-13T04:07:43.911Z,31.50
2023-04-13T04:10:45.663Z,32.30
2023-04-13T04:13:47.283Z,32.40
2023-04-13T04:16:48.928Z,33.20
2023-04-13T04:22:52.713Z,31.90
2023-04-13T04:25:55.035Z,37.20
2023-04-13T04:28:57.272Z,32.70
2023-04-13T04:31:59.010Z,33.00
2023-04-13T04:38:03.001Z,31.20
2023-04-13T04:41:04.988Z,28.70
2023-04-13T04:44:06.591Z,32.20
2023-04-13T04:47:08.370Z,33.30
2023-04-13T04:53:14.948Z,31.50
2023-04-13T04:59:18.955Z,30.80
2023-04-13T05:02:20.632Z,30.70
2023-04-13T05:05:22.779Z,32.10
2023-04-13T05:08:24.508Z,55.60
2023-04-13T05:11:26.285Z,42.40
2023-04-13T05:14:28.112Z,33.90
2023-04-13T05:17:30.632Z,31.40
2023-04-13T05:20:32.788Z,32.70
2023-04-13T05:23:34.421Z,33.00
2023-04-13T05:29:39.485Z,32.60
2023-04-13T05:32:41.224Z,33.90
2023-04-13T05:35:42.857Z,35.20
2023-04-13T05:41:46.073Z,33.60
2023-04-13T05:44:47.890Z,33.90
2023-04-13T05:50:51.082Z,33.50
2023-04-13T05:56:54.406Z,35.30
2023-04-13T06:02:57.921Z,54.20
2023-04-13T06:06:00.046Z,48.40
2023-04-13T06:12:03.959Z,41.70
2023-04-13T06:15:06.149Z,34.70
2023-04-13T06:18:07.839Z,33.30
2023-04-13T06:21:09.682Z,34.00
2023-04-13T06:24:11.638Z,30.60
2023-04-13T06:27:13.363Z,32.80
2023-04-13T06:30:15.252Z,28.20
2023-04-13T06:33:17.098Z,28.40
2023-04-13T06:36:18.668Z,29.40
2023-04-13T06:42:21.816Z,27.60
2023-04-13T06:45:23.541Z,27.40
2023-04-13T06:48:25.368Z,28.40
2023-04-13T06:51:26.983Z,27.50
2023-04-13T06:54:28.655Z,28.00
2023-04-13T06:57:30.646Z,25.90
2023-04-13T07:00:32.304Z,25.40
2023-04-13T07:03:34.239Z,25.90
2023-04-13T07:06:36.273Z,26.10
2023-04-13T07:09:37.919Z,26.60
2023-04-13T07:12:39.677Z,25.10
2023-04-13T07:15:41.433Z,25.60
2023-04-13T07:18:43.279Z,26.00
2023-04-13T07:21:44.949Z,24.60
2023-04-13T07:24:46.596Z,25.40
2023-04-13T07:27:49.003Z,23.00
2023-04-13T07:30:50.709Z,24.20
2023-04-13T07:33:52.418Z,23.40
2023-04-13T07:36:54.005Z,22.60
2023-04-13T07:39:55.881Z,23.30
2023-04-13T07:42:58.244Z,22.50
2023-04-13T07:46:00.446Z,23.40
2023-04-13T07:49:02.532Z,21.40
2023-04-13T07:52:04.818Z,22.60
2023-04-13T07:55:07.476Z,20.90
2023-04-13T07:58:09.115Z,22.00
2023-04-13T08:01:11.119Z,23.00
2023-04-13T08:04:13.370Z,24.20
2023-04-13T08:07:15.198Z,23.50
2023-04-13T08:10:16.889Z,23.10
2023-04-13T08:13:18.553Z,22.30
2023-04-13T08:16:20.339Z,21.40
2023-04-13T08:19:22.068Z,15.70
2023-04-13T08:22:23.750Z,16.20
2023-04-13T08:25:25.766Z,17.80
2023-04-13T08:28:27.435Z,17.10
2023-04-13T08:31:29.095Z,15.80
2023-04-13T08:34:30.830Z,16.20
2023-04-13T08:37:36.374Z,15.10
2023-04-13T08:40:39.689Z,14.70
2023-04-13T08:43:41.510Z,13.80
2023-04-13T08:46:46.684Z,13.90
2023-04-13T08:49:48.784Z,13.60
2023-04-13T08:52:50.452Z,14.90
2023-04-13T08:55:52.762Z,13.80
2023-04-13T08:59:03.569Z,14.30
2023-04-13T09:02:05.368Z,13.20
2023-04-13T09:05:08.552Z,13.40
2023-04-13T09:08:11.770Z,12.70
2023-04-13T09:11:13.565Z,12.90
2023-04-13T09:14:17.879Z,12.80
2023-04-13T09:17:27.758Z,11.50
2023-04-13T09:20:29.571Z,12.10
2023-04-13T09:23:31.211Z,11.80
2023-04-13T09:26:46.584Z,12.00
2023-04-13T09:29:52.356Z,11.70
2023-04-13T09:33:11.060Z,11.40
2023-04-13T09:36:14.112Z,11.20
2023-04-13T09:39:15.911Z,10.30
2023-04-13T09:42:17.611Z,10.70
2023-04-13T09:45:19.375Z,9.70
2023-04-13T09:48:22.357Z,7.00
2023-04-13T09:51:24.229Z,7.00
2023-04-13T09:54:25.912Z,5.90
2023-04-13T09:57:29.638Z,6.60
2023-04-13T10:00:31.315Z,3.90
2023-04-13T10:03:34.536Z,4.70
2023-04-13T10:06:40.244Z,5.00
2023-04-13T10:09:42.037Z,5.20
2023-04-13T10:12:48.794Z,4.90
2023-04-13T10:16:28.553Z,4.80
2023-04-13T10:19:33.987Z,5.50
2023-04-13T10:22:35.907Z,5.10
2023-04-13T10:25:39.589Z,5.10
2023-04-13T10:28:45.988Z,6.30
2023-04-13T10:31:50.881Z,6.20
2023-04-13T10:34:53.864Z,6.00
2023-04-13T10:37:58.824Z,6.80
2023-04-13T10:41:00.436Z,5.60
2023-04-13T10:44:04.483Z,5.60
2023-04-13T10:47:06.371Z,5.70
2023-04-13T10:50:19.148Z,5.50
2023-04-13T10:53:26.703Z,5.50
2023-04-13T10:56:28.805Z,5.70
2023-04-13T10:59:57.031Z,5.50
2023-04-13T11:03:00.576Z,4.80
2023-04-13T11:06:02.576Z,5.40
2023-04-13T11:09:04.946Z,5.80
2023-04-13T11:12:07.720Z,5.50
2023-04-13T11:15:09.853Z,5.10
2023-04-13T11:18:11.529Z,5.30
2023-04-13T11:21:19.104Z,5.00
2023-04-13T11:24:26.266Z,4.50
2023-04-13T11:27:27.852Z,4.60
2023-04-13T11:30:30.080Z,4.40
2023-04-13T11:33:32.195Z,4.30
2023-04-13T11:36:33.893Z,4.00
2023-04-13T11:39:36.868Z,3.90
2023-04-13T11:42:39.981Z,4.00
2023-04-13T11:45:41.742Z,4.00
2023-04-13T11:48:43.835Z,3.90
2023-04-13T11:51:45.726Z,4.00
2023-04-13T11:54:47.456Z,4.10
2023-04-13T11:57:49.583Z,3.90
2023-04-13T12:00:51.201Z,3.70
2023-04-13T12:04:04.098Z,4.20
2023-04-13T12:07:15.226Z,4.00
2023-04-13T12:10:38.216Z,3.80
2023-04-13T12:13:50.327Z,3.50
2023-04-13T12:17:08.014Z,3.60
2023-04-13T12:20:20.840Z,3.90
2023-04-13T12:23:24.678Z,4.20
2023-04-13T12:29:42.125Z,3.70
2023-04-13T12:32:45.901Z,3.50
2023-04-13T12:35:47.658Z,3.70
2023-04-13T12:38:49.286Z,3.40
2023-04-13T12:41:50.925Z,5.10
2023-04-13T12:44:52.641Z,3.70
2023-04-13T12:47:54.394Z,3.90
2023-04-13T12:50:56.263Z,4.00
2023-04-13T12:53:57.945Z,3.70
2023-04-13T12:56:59.575Z,3.50
2023-04-13T13:00:01.392Z,3.80
2023-04-13T13:03:13.118Z,3.80
2023-04-13T13:06:17.141Z,4.10
2023-04-13T13:09:19.243Z,4.10
2023-04-13T13:12:20.957Z,4.00
2023-04-13T13:15:22.722Z,4.30
2023-04-13T13:18:30.073Z,4.40
2023-04-13T13:21:37.391Z,4.60
2023-04-13T13:24:39.122Z,4.10
2023-04-13T13:28:10.294Z,4.40
2023-04-13T13:31:02.369Z,4.30
2023-04-13T13:34:04.095Z,4.10
2023-04-13T13:37:05.747Z,3.80
2023-04-13T13:40:08.292Z,4.60
2023-04-13T13:43:09.973Z,4.20
2023-04-13T13:46:11.648Z,4.70
2023-04-13T13:49:13.427Z,5.00
2023-04-13T13:52:15.030Z,5.40
2023-04-13T13:55:16.707Z,4.90
2023-04-13T13:58:18.303Z,5.30
2023-04-13T14:01:19.981Z,4.80
2023-04-13T14:04:21.707Z,4.20
2023-04-13T14:07:23.286Z,4.50
2023-04-13T14:10:24.929Z,4.40
2023-04-13T14:13:27.297Z,4.10
2023-04-13T14:16:28.990Z,4.50
2023-04-13T14:19:30.722Z,4.80
2023-04-13T14:22:32.518Z,4.50
2023-04-13T14:25:34.197Z,4.70
2023-04-13T14:28:36.349Z,4.70
2023-04-13T14:31:37.972Z,4.30
2023-04-13T14:34:39.690Z,4.60
2023-04-13T14:37:41.341Z,4.30
2023-04-13T14:40:43.178Z,6.10
2023-04-13T14:43:44.836Z,6.70
2023-04-13T14:46:46.636Z,6.00
2023-04-13T14:49:48.828Z,5.10
2023-04-13T14:52:50.509Z,4.60
2023-04-13T14:55:52.154Z,4.90
2023-04-13T14:58:53.781Z,4.60
2023-04-13T15:01:55.555Z,4.80
2023-04-13T15:04:57.544Z,4.80
2023-04-13T15:07:59.211Z,5.20
2023-04-13T15:11:00.861Z,5.60
2023-04-13T15:14:02.569Z,5.10
2023-04-13T15:17:04.336Z,5.00
2023-04-13T15:20:06.544Z,5.00
2023-04-13T15:23:08.228Z,4.90
2023-04-13T15:26:19.028Z,5.40
2023-04-13T15:29:20.707Z,5.10
2023-04-13T15:32:22.330Z,5.50
2023-04-13T15:35:26.861Z,6.10
2023-04-13T15:38:28.784Z,7.80
2023-04-13T15:41:31.344Z,6.50
2023-04-13T15:44:33.053Z,6.10
2023-04-13T15:47:34.952Z,6.60
2023-04-13T15:50:36.737Z,8.00
2023-04-13T15:53:38.358Z,7.20
2023-04-13T15:56:40.080Z,7.40
2023-04-13T15:59:41.765Z,7.80
2023-04-13T16:02:43.587Z,7.50
2023-04-13T16:05:49.109Z,7.10
2023-04-13T16:08:50.788Z,7.60
2023-04-13T16:11:52.426Z,7.90
2023-04-13T16:14:54.199Z,8.60
2023-04-13T16:17:57.031Z,9.60
2023-04-13T16:20:59.515Z,7.40
2023-04-13T16:24:01.222Z,7.70
2023-04-13T16:27:03.010Z,8.20
2023-04-13T16:30:05.356Z,7.30
2023-04-13T16:33:07.252Z,7.10
2023-04-13T16:36:09.481Z,7.70
2023-04-13T16:39:13.076Z,8.50
2023-04-13T16:42:15.402Z,11.60
2023-04-13T16:45:17.216Z,9.30
2023-04-13T16:48:18.852Z,8.90
2023-04-13T16:51:20.484Z,8.50
2023-04-13T16:54:22.268Z,9.20
2023-04-13T16:57:24.167Z,9.90
2023-04-13T17:00:25.987Z,9.90
2023-04-13T17:03:27.920Z,10.00
2023-04-13T17:06:29.995Z,10.90
2023-04-13T17:09:31.586Z,10.20
2023-04-13T17:12:34.013Z,10.90
2023-04-13T17:15:35.938Z,10.90
2023-04-13T17:18:37.940Z,10.60
2023-04-13T17:21:39.528Z,11.40
2023-04-13T17:24:41.478Z,11.60
2023-04-13T17:27:43.233Z,12.10
2023-04-13T17:30:44.890Z,12.40
2023-04-13T17:33:48.223Z,12.70
2023-04-13T17:36:51.312Z,12.60
2023-04-13T17:39:52.872Z,14.60
2023-04-13T17:42:54.622Z,13.40
2023-04-13T17:45:56.480Z,14.30
2023-04-13T17:48:58.484Z,14.30
2023-04-13T17:52:00.936Z,15.20
2023-04-13T17:55:02.954Z,16.30
2023-04-13T17:58:05.373Z,16.30
2023-04-13T18:01:10.789Z,18.40
2023-04-13T18:04:14.258Z,17.40
2023-04-13T18:07:16.128Z,17.80
2023-04-13T18:10:17.946Z,17.20
2023-04-13T18:13:19.718Z,17.80
2023-04-13T18:16:22.308Z,18.80
2023-04-13T18:19:24.620Z,18.80
2023-04-13T18:22:26.346Z,18.90
2023-04-13T18:25:28.269Z,19.50
2023-04-13T18:28:30.077Z,19.90
2023-04-13T18:31:31.757Z,20.90
2023-04-13T18:34:35.090Z,20.60
2023-04-13T18:37:37.960Z,19.10
2023-04-13T18:40:39.782Z,20.10
2023-04-13T18:43:41.493Z,19.90
2023-04-13T18:46:43.326Z,20.10
2023-04-13T18:49:45.193Z,20.80
2023-04-13T18:52:47.251Z,22.50
2023-04-13T18:55:49.370Z,24.10
2023-04-13T18:58:51.610Z,23.40
2023-04-13T19:01:53.452Z,23.80
2023-04-13T19:04:55.539Z,23.70
2023-04-13T19:07:59.526Z,22.60
2023-04-13T19:11:01.121Z,20.60
2023-04-13T19:14:02.879Z,23.50
2023-04-13T19:17:04.482Z,20.40
2023-04-13T19:20:07.108Z,19.30
2023-04-13T19:23:08.876Z,19.00
2023-04-13T19:26:10.470Z,18.70
2023-04-13T19:29:13.038Z,18.90
2023-04-13T19:32:15.025Z,19.20
2023-04-13T19:35:17.415Z,18.70
2023-04-13T19:38:19.181Z,17.90
2023-04-13T19:41:21.056Z,17.60
2023-04-13T19:44:22.892Z,16.90
2023-04-13T19:47:24.559Z,17.50
2023-04-13T19:50:26.179Z,18.20
2023-04-13T19:53:28.563Z,19.40
2023-04-13T19:56:30.939Z,19.20
2023-04-13T19:59:32.841Z,18.70
2023-04-13T20:02:34.715Z,20.10
2023-04-13T20:05:36.520Z,20.50
2023-04-13T20:08:38.287Z,20.00
2023-04-13T20:11:40.790Z,22.00
2023-04-13T20:14:42.494Z,23.10
2023-04-13T20:17:44.128Z,23.90
2023-04-13T20:20:45.793Z,23.10
2023-04-13T20:23:47.398Z,23.50
2023-04-13T20:26:49.052Z,23.70
2023-04-13T20:29:51.372Z,22.70
2023-04-13T20:32:52.987Z,23.20
2023-04-13T20:35:55.097Z,22.60
2023-04-13T20:38:57.092Z,22.60
2023-04-13T20:41:58.754Z,22.60
2023-04-13T20:45:00.348Z,23.10
2023-04-13T20:48:48.573Z,23.00
2023-04-13T20:51:24.042Z,24.60
2023-04-13T20:54:25.638Z,24.70
2023-04-13T20:57:27.283Z,23.50
2023-04-13T21:00:28.896Z,23.30
2023-04-13T21:03:31.194Z,23.50
2023-04-13T21:06:33.283Z,25.20
2023-04-13T21:09:35.088Z,24.30
2023-04-13T21:12:36.724Z,23.60
2023-04-13T21:15:38.362Z,24.30
2023-04-13T21:18:40.278Z,25.40
2023-04-13T21:21:41.901Z,26.60
2023-04-13T21:24:44.238Z,26.50
2023-04-13T21:27:45.822Z,27.40
2023-04-13T21:30:47.484Z,27.90
2023-04-13T21:33:49.220Z,29.20
2023-04-13T21:36:52.213Z,30.80
2023-04-13T21:39:54.072Z,30.40
2023-04-13T21:42:55.660Z,33.20
2023-04-13T21:45:57.319Z,35.30
2023-04-13T21:48:59.227Z,33.80
2023-04-13T21:52:01.157Z,34.80
2023-04-13T21:55:02.891Z,37.00
2023-04-13T21:58:04.542Z,37.20
2023-04-13T22:01:06.597Z,36.90
2023-04-13T22:04:08.324Z,36.80
2023-04-13T22:07:09.955Z,37.90
2023-04-13T22:10:11.744Z,37.30
2023-04-13T22:13:13.430Z,36.80
2023-04-13T22:16:15.123Z,37.70
2023-04-13T22:19:16.778Z,36.80
2023-04-13T22:22:18.401Z,38.50
2023-04-13T22:25:20.063Z,37.60
2023-04-13T22:28:21.698Z,38.50
2023-04-13T22:31:23.307Z,37.70
2023-04-13T22:34:25.176Z,37.40
2023-04-13T22:37:29.579Z,39.60
2023-04-13T22:40:31.212Z,39.50
2023-04-13T22:43:32.790Z,40.50
2023-04-13T22:46:34.710Z,41.20
2023-04-13T22:49:36.388Z,40.10
2023-04-13T22:52:37.986Z,40.90
2023-04-13T22:55:39.704Z,44.70
2023-04-13T22:58:41.376Z,45.60
2023-04-13T23:01:43.137Z,49.70
2023-04-13T23:04:45.047Z,47.20
2023-04-13T23:07:46.891Z,49.20
2023-04-13T23:10:48.546Z,47.50
2023-04-13T23:13:53.077Z,49.60
2023-04-13T23:16:55.057Z,48.20
2023-04-13T23:19:56.731Z,51.70
2023-04-13T23:22:58.785Z,50.80
2023-04-13T23:26:00.474Z,49.40
2023-04-13T23:29:02.253Z,47.80
2023-04-13T23:32:04.390Z,49.40
2023-04-13T23:35:06.722Z,49.40
2023-04-13T23:38:08.334Z,49.80
2023-04-13T23:41:09.938Z,50.50
2023-04-13T23:44:11.577Z,49.90
2023-04-13T23:47:13.266Z,49.90
2023-04-13T23:50:14.921Z,51.50
2023-04-13T23:53:16.544Z,50.70
2023-04-13T23:56:18.609Z,50.00
2023-04-13T23:59:20.363Z,49.00
